createdAt,value
2018-10-06T00:00:57.503Z,100280.64
2018-10-06T00:05:01.172Z,100276.67
2018-10-06T00:09:05.665Z,100275.80
2018-10-06T00:13:09.368Z,100269.62
2018-10-06T00:17:13.108Z,100267.84
2018-10-06T00:21:16.868Z,100259.45
2018-10-06T00:25:20.367Z,100253.71
2018-10-06T00:29:23.877Z,100248.45
2018-10-06T00:33:27.703Z,100248.45
2018-10-06T00:37:31.512Z,100229.06
2018-10-06T00:41:35.104Z,100225.97
2018-10-06T00:45:38.996Z,100215.84
2018-10-06T00:49:42.671Z,100205.27
2018-10-06T00:53:46.425Z,100198.21
2018-10-06T00:57:50.844Z,100201.31
2018-10-06T01:01:54.455Z,100196.89
2018-10-06T01:05:58.016Z,100198.20
2018-10-06T01:10:01.652Z,100187.21
2018-10-06T01:14:05.280Z,100177.51
2018-10-06T01:18:08.870Z,100180.59
2018-10-06T01:22:12.547Z,100178.82
2018-10-06T01:26:16.153Z,100184.98
2018-10-06T01:30:19.742Z,100176.61
2018-10-06T01:34:23.441Z,100173.52
2018-10-06T01:38:27.086Z,100176.59
2018-10-06T01:42:30.668Z,100172.20
2018-10-06T01:46:34.242Z,100172.63
2018-10-06T01:50:37.817Z,100163.38
2018-10-06T01:54:41.439Z,100166.00
2018-10-06T01:58:44.992Z,100155.44
2018-10-06T02:02:48.536Z,100158.53
2018-10-06T02:06:52.501Z,100155.02
2018-10-06T02:10:56.101Z,100149.27
2018-10-06T02:14:59.636Z,100155.43
2018-10-06T02:19:03.425Z,100147.05
2018-10-06T02:23:07.342Z,100146.19
2018-10-06T02:27:10.920Z,100139.58
2018-10-06T02:31:14.464Z,100133.43
2018-10-06T02:35:17.996Z,100133.41
2018-10-06T02:39:21.608Z,100132.53
2018-10-06T02:43:25.092Z,100128.57
2018-10-06T07:33:54.872Z,100075.73
2018-10-06T07:37:59.917Z,100065.14
2018-10-06T07:42:22.804Z,100066.41
2018-10-06T07:51:00.669Z,100049.50
2018-10-06T07:55:09.478Z,100059.13
2018-10-06T07:59:18.671Z,100045.81
2018-10-06T08:07:45.833Z,100047.35
2018-10-06T08:16:48.597Z,100038.67
2018-10-06T08:25:41.463Z,100043.19
2018-10-06T08:29:47.100Z,100026.20
2018-10-06T18:14:59.871Z,99504.59
2018-10-06T18:19:23.557Z,99502.94
2018-10-06T18:42:16.949Z,99521.94
2018-10-06T18:46:21.207Z,99515.46
2018-10-06T18:50:28.359Z,99520.43
2018-10-06T18:54:33.065Z,99520.15
2018-10-06T18:58:37.610Z,99521.92
2018-10-06T19:02:41.530Z,99523.25
2018-10-06T19:11:43.725Z,99536.73
2018-10-06T19:20:15.974Z,99525.94
2018-10-06T19:24:19.884Z,99524.23
2018-10-06T19:28:23.604Z,99511.94
2018-10-06T19:32:27.675Z,99522.23
2018-10-06T19:36:31.547Z,99530.24
2018-10-06T19:40:35.774Z,99524.05
2018-10-06T19:44:39.774Z,99529.80
2018-10-06T19:48:43.677Z,99536.57
2018-10-06T19:52:47.884Z,99545.14
2018-10-06T19:56:51.823Z,99554.02
2018-10-06T20:00:55.661Z,99555.01
2018-10-06T20:04:59.542Z,99555.39
2018-10-06T20:09:03.897Z,99554.06
2018-10-06T20:13:07.626Z,99551.91
2018-10-06T20:17:12.018Z,99545.25
2018-10-06T20:21:15.850Z,99555.58
2018-10-06T20:25:19.947Z,99542.73
2018-10-06T20:29:23.826Z,99539.25
2018-10-06T20:33:27.660Z,99539.77
2018-10-06T20:37:31.532Z,99527.77
2018-10-06T20:41:35.596Z,99522.95
2018-10-06T20:45:39.779Z,99518.95
2018-10-06T20:49:44.329Z,99517.62
2018-10-06T20:53:48.462Z,99522.02
2018-10-06T20:57:54.398Z,99521.20
2018-10-06T21:01:58.431Z,99519.53
2018-10-06T21:06:02.304Z,99528.39
2018-10-06T21:10:06.158Z,99517.72
2018-10-06T21:14:10.433Z,99524.34
2018-10-06T21:18:14.420Z,99524.39
2018-10-06T21:22:18.689Z,99523.06
2018-10-06T21:26:23.270Z,99516.39
2018-10-06T21:30:28.244Z,99513.77
2018-10-06T21:34:32.338Z,99518.14
2018-10-06T21:38:36.487Z,99503.48
2018-10-06T21:42:40.765Z,99503.53
2018-10-06T21:46:44.984Z,99493.72
2018-10-06T21:50:49.381Z,99494.53
2018-10-06T21:54:53.638Z,99487.77
2018-10-06T21:58:57.567Z,99478.77
2018-10-06T22:03:02.751Z,99482.23
2018-10-06T22:07:06.823Z,99473.70
2018-10-06T22:11:11.085Z,99470.56
2018-10-06T22:15:14.971Z,99461.23
2018-10-06T22:19:19.354Z,99455.99
2018-10-06T22:23:23.308Z,99451.66
2018-10-06T22:27:27.332Z,99448.75
2018-10-06T22:31:31.414Z,99433.30
2018-10-06T22:35:35.502Z,99431.20
2018-10-06T22:39:39.667Z,99427.68
2018-10-06T22:43:44.777Z,99432.54
2018-10-06T22:47:49.717Z,99420.20
2018-10-06T22:51:53.830Z,99417.12
2018-10-06T22:55:57.856Z,99407.45
2018-10-06T23:00:01.975Z,99415.13
2018-10-06T23:04:06.319Z,99414.34
2018-10-06T23:08:10.602Z,99412.98
2018-10-06T23:12:14.790Z,99406.34
2018-10-06T23:16:19.256Z,99411.67
2018-10-06T23:20:23.624Z,99412.14
2018-10-06T23:24:27.932Z,99410.05
2018-10-06T23:33:10.480Z,99414.57
2018-10-06T23:37:15.008Z,99416.48
2018-10-06T23:41:19.944Z,99416.92
2018-10-06T23:45:24.752Z,99418.33
2018-10-06T23:49:28.861Z,99420.91
2018-10-06T23:53:32.975Z,99407.30
2018-10-06T23:57:37.043Z,99411.34
